LHBPLHDC

Guest
Details From LHBP - Ferihegy (Budapest)
To LHDC - DEBRECEN
Flight Number -
Tags generated
Created
Modified
Stats Distance 95 nm / 177 km
Max Altitude 0 ft / 0 m
Waypoints 2
Social Downloads 0
Likes 0
Share VATSIM

Download

Looking for another format? Having issues loading an existing format? Contact us
Advertisement - Login to hide

Notes

Basic altitude profile: - Ascent Rate: 2500ft/min - Ascent Speed: 250kts - Cruise Altitude: 35000ft - Cruise Speed: 420kts - Descent Rate: 1500ft/min - Descent Speed: 250kts Options: - Use NATs: no - Use PACOTS: no - Use low airways: no - Use high airways: no

Route

LHBP LHDC

ID Type Via Altitude Latitude Longitude Leg Dist Tot Dist Heading (true) Name
O LHBP APT - 0 ft / 0 m 47.43529˚ 19.26579˚ - 0 nm - Ferihegy (Budapest)
O LHDC APT - 0 ft / 0 m 47.48942˚ 21.61458˚ 95 nm 95 nm 87° / 89° DEBRECEN

Altitude Profile

Advertisement - Login to hide

LHBP

Details ICAO LHBP (BUD)
Name Ferihegy (Budapest)
Region Hungary
Timezone Europe/Budapest (UTC+1.0)
Stats Elevation 495 ft / 151 m (AMSL)
Location 47.435292° 19.265792°
Runways 3
Magnetic Variation 4.765° E

METAR

LHBP 182000Z 33005KT 9999 BKN048 00/M03 Q1025 NOSIG

Decode

TAF

TAF TAF LHBP 181715Z 1818/1918 34006KT CAVOK TEMPO 1818/1822 BKN045 BECMG 1821/1824 VRB02KT 4500 BR TEMPO 1902/1906 1200 FZBCFG BECMG 1908/1910 31007KT CAVOK

Decode

Departure Runways

ID Width Length Bearing (true) Bearing (mag) Surface Threshold Offset Overrun Length
13 250 ft / 76 m 6,000 ft / 1,829 m 132.54° 127.77° Unknown 0 ft / 0 m 0 ft / 0 m
13L 196 ft / 60 m 12,487 ft / 3,806 m 132.54° 127.77° Asphalt 0 ft / 0 m 200 ft / 61 m
13R 196 ft / 60 m 10,145 ft / 3,092 m 132.49° 127.72° Asphalt 0 ft / 0 m 197 ft / 60 m
31 250 ft / 76 m 6,000 ft / 1,829 m 312.55° 307.78° Unknown 0 ft / 0 m 0 ft / 0 m
31L 196 ft / 60 m 10,145 ft / 3,092 m 312.51° 307.74° Asphalt 0 ft / 0 m 197 ft / 60 m
31R 196 ft / 60 m 12,487 ft / 3,806 m 312.56° 307.79° Asphalt 0 ft / 0 m 197 ft / 60 m

LHDC

Details ICAO LHDC (DEB)
Name DEBRECEN
Region Hungary
Timezone Europe/Budapest (UTC+1.0)
Stats Elevation 359 ft / 109 m (AMSL)
Location 47.489417° 21.614576°
Runways 2
Magnetic Variation 5.246° E

METAR

LHDC 181945Z 36008KT CAVOK 00/M04 Q1024 NOSIG

Decode

TAF

Not found

Destination Runways

ID Width Length Bearing (true) Bearing (mag) Surface Threshold Offset Overrun Length
05L 230 ft / 70 m 8,081 ft / 2,463 m 47.94° 42.69° Concrete 0 ft / 0 m 0 ft / 0 m
05R 131 ft / 40 m 8,186 ft / 2,495 m 47.82° 42.57° Concrete 0 ft / 0 m 49 ft / 15 m
23L 131 ft / 40 m 8,186 ft / 2,495 m 227.84° 222.59° Concrete 979 ft / 298 m 49 ft / 15 m
23R 230 ft / 70 m 8,081 ft / 2,463 m 227.95° 222.70° Concrete 0 ft / 0 m 0 ft / 0 m

Approach Navaids

Runway Type Ident Frequency Range Bearing (true) Bearing (mag) Slope Elevation
05R Localiser DCN 110.10 MHz 18 nm / 33 km 47.87° 42.62° - 359 ft / 109 m (AMSL)
05R Glidescope DCN 110.10 MHz 10 nm / 19 km 47.83° 42.59° 3.00° 359 ft / 109 m (AMSL)

Popular Alternatives